Time;durP1;ratioP1;P1;durP2;ratioP2;P2;SDS_P1;SDS_P2;PMS_P1;PMS_P2;Temp;Humidity;BMP_temperature;BMP_pressure;BME280_temperature;BME280_humidity;BME280_pressure;Samples;Min_cycle;Max_cycle;Signal;HPM_P1;HPM_P2
2022/05/24 00:01:15;;;;;;;11.85;2.90;;;;;;;13.87;100.00;94623.06;5053954;28;20051;-75
2022/05/24 00:03:41;;;;;;;7.53;2.78;;;;;;;13.89;100.00;94618.22;5055819;28;20057;-75
2022/05/24 00:06:06;;;;;;;5.50;2.70;;;;;;;13.96;100.00;94621.19;5069211;28;20053;-75
2022/05/24 00:08:33;;;;;;;5.65;2.35;;;;;;;13.97;100.00;94617.44;5057063;28;20407;-76
2022/05/24 00:10:58;;;;;;;5.32;2.47;;;;;;;13.92;100.00;94608.88;5049903;28;20187;-76
2022/05/24 00:13:24;;;;;;;10.95;2.97;;;;;;;13.84;100.00;94616.53;5050302;28;20040;-76
2022/05/24 00:15:50;;;;;;;4.70;2.38;;;;;;;13.77;100.00;94626.03;5049090;28;20084;-75
2022/05/24 00:18:22;;;;;;;11.50;2.85;;;;;;;13.80;100.00;94628.03;5048370;28;20517;-75
2022/05/24 00:20:50;;;;;;;9.07;3.00;;;;;;;13.84;100.00;94623.69;5069060;28;20037;-75
2022/05/24 00:23:18;;;;;;;28.45;2.97;;;;;;;13.78;100.00;94630.22;5058565;28;20033;-75
2022/05/24 00:25:47;;;;;;;13.00;3.13;;;;;;;13.81;100.00;94632.25;5069348;28;20088;-76
2022/05/24 00:28:14;;;;;;;9.77;2.67;;;;;;;13.87;100.00;94617.78;5051421;28;20129;-75
2022/05/24 00:30:41;;;;;;;5.82;2.97;;;;;;;13.84;100.00;94613.09;5048870;28;20041;-74
2022/05/24 00:33:07;;;;;;;9.55;2.92;;;;;;;13.82;100.00;94610.78;5060558;28;20045;-75
2022/05/24 00:35:33;;;;;;;10.45;3.38;;;;;;;13.81;100.00;94611.09;5067915;28;20646;-75
2022/05/24 00:37:58;;;;;;;8.55;3.20;;;;;;;13.80;100.00;94607.66;5056659;28;20123;-75
2022/05/24 00:40:48;;;;;;;8.38;3.10;;;;;;;13.80;100.00;94601.59;5048537;28;20414;-75
2022/05/24 00:43:31;;;;;;;11.98;3.40;;;;;;;13.80;100.00;94612.16;5061208;28;20044;-75
2022/05/24 00:46:08;;;;;;;21.77;3.80;;;;;;;13.74;100.00;94613.41;5068940;28;20044;-75
2022/05/24 00:48:39;;;;;;;11.55;3.45;;;;;;;13.84;100.00;94618.41;5060860;28;20059;-74
2022/05/24 00:51:09;;;;;;;9.93;3.25;;;;;;;13.87;100.00;94615.13;5064792;28;20037;-76
2022/05/24 00:53:41;;;;;;;7.68;3.58;;;;;;;13.88;100.00;94616.69;5061756;28;20032;-75
2022/05/24 00:56:12;;;;;;;11.45;3.40;;;;;;;13.90;100.00;94617.13;5066896;28;20521;-75
2022/05/24 00:58:41;;;;;;;13.73;3.67;;;;;;;13.90;100.00;94619.78;5052290;28;20041;-74
2022/05/24 01:01:28;;;;;;;8.38;3.80;;;;;;;13.88;100.00;94614.03;5065071;28;20186;-75
2022/05/24 01:03:54;;;;;;;8.43;3.47;;;;;;;13.87;100.00;94617.78;5061980;28;20387;-74
2022/05/24 01:06:21;;;;;;;8.57;3.50;;;;;;;13.91;100.00;94621.34;5055828;28;20064;-76
2022/05/24 01:08:46;;;;;;;13.55;3.92;;;;;;;13.90;100.00;94614.50;5050194;28;20040;-75
2022/05/24 01:11:14;;;;;;;13.00;3.65;;;;;;;13.88;100.00;94603.47;5062374;28;20449;-75
2022/05/24 01:13:41;;;;;;;7.70;3.58;;;;;;;13.92;100.00;94604.41;5068696;28;20041;-75
2022/05/24 01:16:07;;;;;;;12.40;3.47;;;;;;;13.85;100.00;94614.66;5071825;28;20048;-75
2022/05/24 01:18:33;;;;;;;11.23;3.83;;;;;;;13.84;100.00;94615.75;5063739;28;20041;-76
2022/05/24 01:21:08;;;;;;;7.75;3.95;;;;;;;13.85;100.00;94606.75;5051918;28;20123;-75
2022/05/24 01:24:07;;;;;;;8.05;3.67;;;;;;;13.91;100.00;94608.13;5070281;28;20509;-74
2022/05/24 01:26:49;;;;;;;7.72;3.67;;;;;;;13.87;100.00;94596.59;5053267;28;20052;-74
2022/05/24 01:29:16;;;;;;;10.75;3.88;;;;;;;13.84;100.00;94591.94;5050698;28;20048;-73
2022/05/24 01:37:13;;;;;;;8.70;4.18;;;;;;;13.81;100.00;94603.16;5051794;28;20056;-75
2022/05/24 01:39:43;;;;;;;9.93;3.90;;;;;;;13.86;100.00;94597.69;5050590;28;20083;-74
2022/05/24 01:42:09;;;;;;;14.35;4.63;;;;;;;13.88;100.00;94592.88;5057216;28;20143;-74
2022/05/24 01:44:42;;;;;;;10.25;3.80;;;;;;;13.86;100.00;94589.75;5057565;28;20055;-74
2022/05/24 01:47:08;;;;;;;9.77;4.18;;;;;;;13.89;100.00;94589.13;5055242;28;20041;-74
2022/05/24 01:49:38;;;;;;;8.77;3.90;;;;;;;13.87;100.00;94586.03;5051077;28;20049;-74
2022/05/24 01:52:22;;;;;;;12.05;4.07;;;;;;;13.79;100.00;94578.88;5063175;28;20398;-74
2022/05/24 01:55:00;;;;;;;9.80;4.30;;;;;;;13.85;100.00;94593.50;5060392;28;20097;-74
2022/05/24 01:57:30;;;;;;;12.27;3.80;;;;;;;13.86;100.00;94579.19;5058608;28;20041;-74
2022/05/24 01:59:59;;;;;;;7.75;3.85;;;;;;;13.86;100.00;94590.56;5050919;28;20056;-74
2022/05/24 02:02:27;;;;;;;14.30;4.25;;;;;;;13.86;100.00;94600.34;5067480;28;20037;-75
2022/05/24 02:04:52;;;;;;;11.15;4.20;;;;;;;13.86;100.00;94592.41;5061525;28;20036;-74
2022/05/24 02:07:22;;;;;;;11.00;3.88;;;;;;;13.85;100.00;94593.50;5059683;28;20047;-74
2022/05/24 02:09:54;;;;;;;10.52;3.58;;;;;;;13.86;100.00;94584.47;5061519;28;20064;-74
2022/05/24 02:12:47;;;;;;;13.57;3.92;;;;;;;13.85;100.00;94589.00;5064621;28;20037;-75
2022/05/24 02:15:17;;;;;;;10.75;4.00;;;;;;;13.83;100.00;94582.44;5058584;28;20064;-75
2022/05/24 02:17:58;;;;;;;11.98;4.15;;;;;;;13.85;100.00;94582.94;5063693;28;20045;-74
2022/05/24 02:20:28;;;;;;;9.57;3.90;;;;;;;13.84;100.00;94570.78;5050165;28;20063;-74
2022/05/24 02:22:53;;;;;;;11.90;3.83;;;;;;;13.83;100.00;94561.28;5066611;28;20041;-76
2022/05/24 02:25:26;;;;;;;10.70;3.85;;;;;;;13.83;100.00;94558.66;5053477;28;20720;-75
2022/05/24 02:27:53;;;;;;;15.55;3.63;;;;;;;13.80;100.00;94564.56;5063031;28;20099;-75
2022/05/24 02:30:25;;;;;;;11.18;3.95;;;;;;;13.76;100.00;94558.34;5054147;28;20048;-76
2022/05/24 02:32:51;;;;;;;9.00;3.58;;;;;;;13.77;100.00;94554.63;5070644;28;20052;-75
2022/05/24 02:35:17;;;;;;;11.38;4.07;;;;;;;13.76;100.00;94553.06;5055375;28;20055;-75
2022/05/24 02:37:42;;;;;;;16.98;4.30;;;;;;;13.72;100.00;94546.84;5065472;28;20036;-76
2022/05/24 02:42:55;;;;;;;10.02;3.75;;;;;;;13.74;100.00;94542.03;5050635;28;20527;-75
2022/05/24 02:45:21;;;;;;;10.95;4.10;;;;;;;13.73;100.00;94549.16;5064210;28;20040;-75
2022/05/24 02:47:47;;;;;;;11.95;4.18;;;;;;;13.75;100.00;94548.84;5067244;28;20093;-75
2022/05/24 02:50:14;;;;;;;13.90;4.47;;;;;;;13.72;100.00;94547.63;5058718;28;20542;-75
2022/05/24 02:52:40;;;;;;;13.52;3.90;;;;;;;13.72;100.00;94546.84;5050160;28;20060;-75
2022/05/24 02:55:10;;;;;;;7.18;3.60;;;;;;;13.71;100.00;94535.50;5062449;28;20744;-73
2022/05/24 02:57:37;;;;;;;10.60;4.10;;;;;;;13.72;100.00;94541.56;5067740;28;20044;-76
2022/05/24 03:00:06;;;;;;;13.50;4.57;;;;;;;13.50;100.00;94503.63;5067904;28;20459;-75
2022/05/24 03:02:31;;;;;;;12.10;4.45;;;;;;;13.63;100.00;94544.19;5068520;28;20060;-75
2022/05/24 03:05:00;;;;;;;11.90;4.63;;;;;;;13.62;100.00;94543.44;5069061;28;20037;-75
2022/05/24 03:10:09;;;;;;;12.00;5.25;;;;;;;13.62;100.00;94532.88;5059764;28;20516;-76
2022/05/24 03:15:19;;;;;;;12.98;4.78;;;;;;;13.61;100.00;94535.81;5050134;28;20033;-74
2022/05/24 03:17:44;;;;;;;8.98;4.68;;;;;;;13.58;100.00;94531.94;5056158;28;20055;-74
2022/05/24 03:20:10;;;;;;;13.48;4.55;;;;;;;13.60;100.00;94540.31;5049472;28;20048;-75
2022/05/24 03:22:36;;;;;;;10.45;4.05;;;;;;;13.69;100.00;94543.75;5050021;28;20086;-75
2022/05/24 03:25:02;;;;;;;14.35;4.25;;;;;;;13.67;100.00;94548.53;5058766;28;20045;-75
2022/05/24 03:27:27;;;;;;;9.63;4.10;;;;;;;13.57;100.00;94548.09;5049964;28;20037;-74
2022/05/24 03:29:53;;;;;;;9.43;4.05;;;;;;;13.59;100.00;94538.78;5058087;28;20048;-75
2022/05/24 03:32:19;;;;;;;10.68;4.38;;;;;;;13.60;100.00;94545.59;5063252;28;20040;-75
2022/05/24 03:34:45;;;;;;;11.30;4.53;;;;;;;13.63;100.00;94539.72;5064866;28;20059;-75
2022/05/24 03:37:11;;;;;;;8.18;3.78;;;;;;;13.64;100.00;94541.25;5049704;28;20103;-75
2022/05/24 03:39:37;;;;;;;10.15;4.32;;;;;;;13.54;100.00;94538.91;5049321;28;20490;-75
2022/05/24 03:42:03;;;;;;;7.88;4.63;;;;;;;13.56;100.00;94534.13;5065973;28;20048;-75
2022/05/24 03:44:29;;;;;;;12.77;4.28;;;;;;;13.56;100.00;94534.13;5052503;28;20094;-75
2022/05/24 03:46:55;;;;;;;9.07;4.35;;;;;;;13.61;100.00;94536.59;5059942;28;20040;-75
2022/05/24 03:49:21;;;;;;;12.65;4.40;;;;;;;13.59;100.00;94533.50;5048237;28;20502;-75
2022/05/24 03:51:46;;;;;;;9.13;4.20;;;;;;;13.54;100.00;94536.28;5060203;28;20052;-75
2022/05/24 03:54:12;;;;;;;8.82;4.32;;;;;;;13.45;100.00;94538.16;5069600;28;20040;-75
2022/05/24 03:56:39;;;;;;;10.73;4.60;;;;;;;13.51;100.00;94542.19;5064276;28;20521;-75
2022/05/24 03:59:05;;;;;;;10.13;4.57;;;;;;;13.52;100.00;94538.47;5059164;28;20071;-75
2022/05/24 04:01:31;;;;;;;11.90;4.50;;;;;;;13.52;100.00;94539.22;5049215;28;20052;-74
2022/05/24 04:03:56;;;;;;;9.38;4.50;;;;;;;13.54;100.00;94544.22;5049301;28;20068;-74
2022/05/24 04:06:22;;;;;;;12.32;4.50;;;;;;;13.56;100.00;94549.97;5057099;28;20094;-72
2022/05/24 04:08:48;;;;;;;9.48;4.25;;;;;;;13.57;100.00;94545.47;5068231;28;20048;-74
2022/05/24 04:11:14;;;;;;;12.15;4.50;;;;;;;13.60;100.00;94548.25;5057450;28;20044;-73
2022/05/24 04:13:42;;;;;;;8.07;3.85;;;;;;;13.53;100.00;94545.28;5067205;28;20044;-74
2022/05/24 04:16:08;;;;;;;10.85;3.97;;;;;;;13.53;100.00;94540.00;5061972;28;20041;-73
2022/05/24 04:18:34;;;;;;;9.23;3.92;;;;;;;13.58;100.00;94553.06;5048984;28;20041;-74
2022/05/24 04:21:00;;;;;;;11.90;4.30;;;;;;;13.47;100.00;94552.59;5053771;28;20052;-74
2022/05/24 04:23:26;;;;;;;10.60;4.10;;;;;;;13.52;100.00;94554.31;5049066;28;20040;-73
2022/05/24 04:25:53;;;;;;;9.60;4.30;;;;;;;13.52;100.00;94559.63;5050170;28;20068;-74
2022/05/24 04:28:21;;;;;;;10.27;4.85;;;;;;;13.51;100.00;94548.25;5055662;28;20733;-73
2022/05/24 04:30:48;;;;;;;20.65;4.40;;;;;;;13.48;100.00;94548.09;5057672;28;20079;-73
2022/05/24 04:33:15;;;;;;;18.85;4.25;;;;;;;13.44;100.00;94547.94;5067776;28;20041;-74
2022/05/24 04:35:42;;;;;;;8.98;4.20;;;;;;;13.44;100.00;94547.16;5064184;28;20033;-72
2022/05/24 04:38:08;;;;;;;9.90;4.20;;;;;;;13.43;100.00;94550.88;5057188;28;20044;-74
2022/05/24 04:43:18;;;;;;;13.57;4.70;;;;;;;13.40;100.00;94572.66;5050491;28;20045;-73
2022/05/24 04:45:44;;;;;;;14.70;4.78;;;;;;;13.36;100.00;94583.09;5059377;28;20545;-73
2022/05/24 04:48:09;;;;;;;10.02;4.40;;;;;;;13.41;100.00;94574.22;5065092;28;20036;-74
2022/05/24 04:50:36;;;;;;;13.60;5.20;;;;;;;13.44;100.00;94576.25;5061442;28;20052;-73
2022/05/24 04:53:02;;;;;;;10.38;4.50;;;;;;;13.49;100.00;94576.88;5052913;28;20064;-74
2022/05/24 04:55:28;;;;;;;10.30;4.28;;;;;;;13.53;100.00;94577.00;5061832;28;20036;-73
2022/05/24 04:57:55;;;;;;;15.30;4.95;;;;;;;13.52;100.00;94576.25;5070317;28;20037;-74
2022/05/24 05:00:23;;;;;;;14.88;4.47;;;;;;;13.48;100.00;94566.59;5056298;28;20139;-74
2022/05/24 05:02:49;;;;;;;17.55;4.68;;;;;;;13.47;100.00;94573.75;5051484;28;20048;-74
2022/05/24 05:05:15;;;;;;;9.32;4.90;;;;;;;13.51;100.00;94568.63;5066556;28;20098;-74
2022/05/24 05:07:42;;;;;;;13.82;5.15;;;;;;;13.49;100.00;94576.09;5071666;28;20044;-74
2022/05/24 05:10:09;;;;;;;11.73;4.88;;;;;;;13.51;100.00;94574.69;5064152;28;20086;-74
2022/05/24 05:12:36;;;;;;;13.75;4.90;;;;;;;13.50;100.00;94565.22;5068553;28;20098;-73
2022/05/24 05:15:03;;;;;;;7.97;4.40;;;;;;;13.49;100.00;94565.53;5055348;28;20144;-74
2022/05/24 05:17:29;;;;;;;10.60;4.78;;;;;;;13.52;100.00;94570.19;5064503;28;20045;-73
2022/05/24 05:19:54;;;;;;;14.02;4.78;;;;;;;13.53;100.00;94566.44;5067157;28;20044;-75
2022/05/24 05:22:22;;;;;;;10.25;4.75;;;;;;;13.56;100.00;94565.84;5061435;28;20103;-74
2022/05/24 05:24:48;;;;;;;10.55;4.30;;;;;;;13.55;100.00;94566.91;5052526;28;20056;-74
2022/05/24 05:27:13;;;;;;;13.85;4.80;;;;;;;13.51;100.00;94573.91;5052425;28;20033;-74
2022/05/24 05:32:30;;;;;;;12.02;4.22;;;;;;;13.59;100.00;94575.00;5062768;28;20494;-75
2022/05/24 05:34:56;;;;;;;10.02;4.35;;;;;;;13.56;100.00;94581.69;5055177;28;20295;-75
2022/05/24 05:37:22;;;;;;;11.68;4.40;;;;;;;13.52;100.00;94570.94;5055251;28;20047;-74
2022/05/24 05:39:48;;;;;;;12.13;5.00;;;;;;;13.53;100.00;94577.00;5067265;28;20074;-75
2022/05/24 05:42:14;;;;;;;7.57;4.72;;;;;;;13.61;100.00;94584.16;5069884;28;20052;-74
2022/05/24 05:44:40;;;;;;;7.47;4.43;;;;;;;13.63;100.00;94592.59;5060356;28;20033;-73
2022/05/24 05:47:06;;;;;;;9.18;4.65;;;;;;;13.67;100.00;94587.44;5061077;28;20056;-79
2022/05/24 05:49:32;;;;;;;12.65;5.10;;;;;;;13.72;100.00;94583.84;5062613;28;20040;-79
2022/05/24 05:51:57;;;;;;;8.93;5.10;;;;;;;13.66;100.00;94584.03;5072282;28;20041;-79
2022/05/24 05:54:24;;;;;;;11.00;5.47;;;;;;;13.74;100.00;94576.41;5058717;28;20053;-77
2022/05/24 05:56:50;;;;;;;12.40;4.95;;;;;;;13.78;100.00;94583.41;5063925;28;20048;-75
2022/05/24 05:59:16;;;;;;;12.55;4.82;;;;;;;13.86;100.00;94579.19;5063555;28;20043;-76
2022/05/24 06:01:42;;;;;;;10.13;4.70;;;;;;;13.87;100.00;94588.69;5052369;28;20049;-76
2022/05/24 06:04:09;;;;;;;10.43;4.63;;;;;;;13.91;100.00;94597.53;5051068;28;20522;-75
2022/05/24 06:06:39;;;;;;;12.02;5.07;;;;;;;13.91;100.00;94597.53;5052931;28;20764;-76
2022/05/24 06:09:04;;;;;;;10.32;4.55;;;;;;;14.10;100.00;94607.03;5068854;28;20044;-76
2022/05/24 06:11:30;;;;;;;18.20;4.57;;;;;;;14.16;100.00;94608.41;5066631;28;20048;-76
2022/05/24 06:13:56;;;;;;;12.65;4.53;;;;;;;14.10;100.00;94620.25;5052687;28;20049;-76
2022/05/24 06:16:21;;;;;;;10.48;5.20;;;;;;;14.16;100.00;94608.41;5061274;28;20040;-76
2022/05/24 06:18:47;;;;;;;10.35;4.63;;;;;;;14.37;100.00;94614.59;5063119;28;20478;-75
2022/05/24 06:21:13;;;;;;;11.95;4.43;;;;;;;14.35;100.00;94619.44;5058983;28;20076;-78
2022/05/24 06:23:39;;;;;;;11.35;4.20;;;;;;;14.42;100.00;94623.47;5053147;28;20045;-78
2022/05/24 06:26:04;;;;;;;8.27;4.10;;;;;;;14.40;100.00;94623.00;5063567;28;20040;-79
2022/05/24 06:28:30;;;;;;;7.80;4.03;;;;;;;14.33;100.00;94629.53;5062587;28;20056;-79
2022/05/24 06:30:56;;;;;;;11.07;4.20;;;;;;;14.35;100.00;94637.16;5058927;28;20076;-80
2022/05/24 06:33:22;;;;;;;9.05;3.70;;;;;;;14.38;100.00;94641.84;5071067;28;20036;-78
2022/05/24 06:35:47;;;;;;;9.57;3.80;;;;;;;14.26;100.00;94639.81;5066535;28;20037;-78
2022/05/24 06:38:13;;;;;;;8.38;3.58;;;;;;;14.27;100.00;94636.09;5067102;28;20032;-77
2022/05/24 06:40:39;;;;;;;10.20;4.05;;;;;;;14.26;100.00;94629.25;5064258;28;20057;-77
2022/05/24 06:43:05;;;;;;;10.30;3.70;;;;;;;14.25;100.00;94633.00;5065739;28;20110;-78
2022/05/24 06:45:31;;;;;;;10.10;3.63;;;;;;;14.23;100.00;94629.88;5052871;28;20105;-77
2022/05/24 06:47:57;;;;;;;8.02;3.70;;;;;;;14.30;100.00;94640.00;5067142;28;20736;-77
2022/05/24 06:50:22;;;;;;;10.15;3.83;;;;;;;14.28;100.00;94648.25;5057288;28;20122;-75
2022/05/24 06:52:56;;;;;;;12.15;3.47;;;;;;;14.34;100.00;94641.69;5053244;28;20072;-77
2022/05/24 06:55:22;;;;;;;7.32;3.38;;;;;;;14.36;100.00;94642.13;5067915;28;20153;-76
2022/05/24 06:57:48;;;;;;;7.35;3.70;;;;;;;14.37;100.00;94650.88;5053007;28;20044;-77
2022/05/24 07:03:01;;;;;;;8.20;3.20;;;;;;;14.33;100.00;94665.81;5059236;28;20048;-78
2022/05/24 07:05:27;;;;;;;6.40;3.47;;;;;;;14.27;100.00;94667.09;5052364;28;20090;-75
2022/05/24 07:07:52;;;;;;;8.23;3.70;;;;;;;14.18;100.00;94669.75;5065131;28;20044;-76
2022/05/24 07:10:18;;;;;;;10.18;3.67;;;;;;;14.18;100.00;94669.75;5064898;28;20414;-75
2022/05/24 07:12:45;;;;;;;9.65;3.97;;;;;;;14.22;100.00;94675.94;5050277;28;20458;-73
2022/05/24 07:15:12;;;;;;;8.88;4.20;;;;;;;14.18;100.00;94669.75;5062786;28;20110;-75
2022/05/24 07:17:37;;;;;;;10.25;4.65;;;;;;;14.25;100.00;94679.84;5050585;28;20049;-76
2022/05/24 07:20:04;;;;;;;7.85;3.90;;;;;;;14.28;100.00;94677.34;5058549;28;20490;-74
2022/05/24 07:22:30;;;;;;;7.97;5.05;;;;;;;14.25;100.00;94670.06;5064511;28;20044;-75
2022/05/24 07:24:55;;;;;;;13.65;4.50;;;;;;;14.25;100.00;94680.63;5060073;28;20044;-80
2022/05/24 07:27:22;;;;;;;10.15;4.32;;;;;;;14.22;100.00;94691.81;5058727;28;20127;-80
2022/05/24 07:29:49;;;;;;;13.18;4.68;;;;;;;14.20;100.00;94691.38;5061690;28;20044;-78
2022/05/24 07:32:14;;;;;;;10.88;4.63;;;;;;;14.28;100.00;94700.38;5056521;28;20120;-77
2022/05/24 07:34:40;;;;;;;9.80;4.20;;;;;;;14.22;100.00;94707.69;5069822;28;20119;-77
2022/05/24 07:37:11;;;;;;;9.18;4.53;;;;;;;14.26;100.00;94703.34;5068273;28;20047;-77
2022/05/24 07:39:37;;;;;;;14.48;5.13;;;;;;;14.31;100.00;94716.44;5058508;28;20098;-77
2022/05/24 07:47:33;;;;;;;14.82;4.68;;;;;;;14.15;100.00;94733.84;5058299;28;20522;-78
2022/05/24 07:49:59;;;;;;;9.70;4.72;;;;;;;14.06;100.00;94730.44;5050077;28;20033;-75
2022/05/24 07:52:25;;;;;;;10.45;4.50;;;;;;;13.98;100.00;94745.97;5048291;28;20116;-74
2022/05/24 07:54:51;;;;;;;10.43;4.63;;;;;;;13.83;100.00;94738.47;5053569;28;20045;-75
2022/05/24 07:57:16;;;;;;;9.85;4.25;;;;;;;13.64;100.00;94742.16;5061352;28;20174;-75
2022/05/24 07:59:43;;;;;;;8.95;4.28;;;;;;;13.70;100.00;94750.75;5062361;28;20410;-74
2022/05/24 08:02:09;;;;;;;11.75;4.03;;;;;;;13.66;100.00;94763.00;5063609;28;20036;-74
2022/05/24 08:04:35;;;;;;;8.57;4.60;;;;;;;13.47;100.00;94768.56;5054541;28;20048;-80
2022/05/24 08:07:01;;;;;;;12.82;5.30;;;;;;;13.44;100.00;94763.88;5052256;28;20075;-79
2022/05/24 08:09:27;;;;;;;15.80;5.35;;;;;;;13.52;100.00;94771.06;5050186;28;20037;-76
2022/05/24 08:11:52;;;;;;;19.30;5.57;;;;;;;13.49;100.00;94764.53;5065136;28;20040;-83
2022/05/24 08:14:18;;;;;;;13.93;4.43;;;;;;;13.53;100.00;94767.31;5071367;28;20036;-78
2022/05/24 08:16:46;;;;;;;12.65;5.32;;;;;;;13.40;100.00;94773.50;5072057;28;20433;-80
2022/05/24 08:19:12;;;;;;;15.23;5.38;;;;;;;13.53;100.00;94777.91;5053702;28;20510;-83
2022/05/24 08:21:37;;;;;;;14.27;5.53;;;;;;;13.45;100.00;94781.31;5049952;28;20044;-78
2022/05/24 08:24:03;;;;;;;15.10;5.18;;;;;;;13.47;100.00;94794.97;5071068;28;20036;-78
2022/05/24 08:26:29;;;;;;;11.02;5.30;;;;;;;13.47;100.00;94800.28;5063412;28;20032;-78
2022/05/24 08:28:54;;;;;;;11.35;4.60;;;;;;;13.46;100.00;94820.66;5064443;28;20124;-78
2022/05/24 08:31:20;;;;;;;13.68;5.15;;;;;;;13.36;100.00;94809.53;5060750;28;20052;-78
2022/05/24 08:33:47;;;;;;;9.68;5.15;;;;;;;13.41;100.00;94814.72;5051476;28;20090;-77
2022/05/24 08:36:13;;;;;;;16.40;5.68;;;;;;;13.38;100.00;94823.25;5062330;28;20036;-77
2022/05/24 08:38:41;;;;;;;13.20;5.55;;;;;;;13.38;100.00;94829.31;5058171;28;20479;-78
2022/05/24 08:41:12;;;;;;;11.70;5.53;;;;;;;13.40;100.00;94821.06;5050834;28;20048;-77
2022/05/24 08:48:22;;;;;;;13.02;5.85;;;;;;;13.43;100.00;94815.16;5050028;28;20115;-77
2022/05/24 08:49:32;;;;;;;10.50;5.25;;;;;;;13.36;100.00;94820.13;5050345;28;20045;-78
2022/05/24 08:52:02;;;;;;;13.15;5.78;;;;;;;13.44;100.00;94822.78;5050648;28;20060;-78
2022/05/24 08:54:33;;;;;;;14.00;4.97;;;;;;;13.52;100.00;94831.88;5060796;28;20044;-78
2022/05/24 08:57:06;;;;;;;12.23;5.20;;;;;;;13.37;100.00;94819.81;5065002;28;20040;-78
2022/05/24 08:59:39;;;;;;;15.63;5.00;;;;;;;13.45;100.00;94823.59;5065371;28;20566;-78
2022/05/24 09:02:06;;;;;;;10.73;5.18;;;;;;;13.42;100.00;94824.97;5066464;28;20041;-79
2022/05/24 09:04:33;;;;;;;9.75;4.15;;;;;;;13.38;100.00;94820.59;5055512;28;20449;-78
2022/05/24 09:07:06;;;;;;;7.38;4.20;;;;;;;13.36;100.00;94820.91;5052089;28;20052;-79
2022/05/24 09:10:00;;;;;;;13.50;4.40;;;;;;;13.39;100.00;94824.78;5062955;28;20040;-78
2022/05/24 09:12:38;;;;;;;9.80;4.25;;;;;;;13.30;100.00;94817.59;5050167;28;20049;-79
2022/05/24 09:15:22;;;;;;;10.63;4.32;;;;;;;13.38;100.00;94813.44;5065391;28;20516;-79
2022/05/24 09:18:09;;;;;;;9.50;4.60;;;;;;;13.44;100.00;94822.03;5064820;28;20510;-79
2022/05/24 09:20:44;;;;;;;7.45;4.20;;;;;;;13.42;100.00;94809.13;5064949;28;20060;-78
2022/05/24 09:23:29;;;;;;;7.65;4.50;;;;;;;13.45;100.00;94818.31;5063669;28;20066;-78
2022/05/24 09:25:58;;;;;;;8.30;4.15;;;;;;;13.38;100.00;94810.03;5065384;28;20494;-79
2022/05/24 09:28:48;;;;;;;12.18;4.40;;;;;;;13.54;100.00;94810.41;5056046;28;20033;-79
2022/05/24 09:31:49;;;;;;;8.13;4.43;;;;;;;13.51;100.00;94819.72;5054138;28;20041;-78
2022/05/24 09:34:17;;;;;;;8.40;3.53;;;;;;;13.49;100.00;94829.84;5058781;28;20094;-78
2022/05/24 09:37:03;;;;;;;8.35;4.25;;;;;;;13.51;100.00;94822.38;5070492;28;20076;-78
2022/05/24 09:39:33;;;;;;;7.90;4.45;;;;;;;13.59;100.00;94829.56;5058126;28;20658;-78
2022/05/24 09:42:06;;;;;;;9.77;4.05;;;;;;;13.50;100.00;94826.09;5060380;28;20049;-78
2022/05/24 09:44:50;;;;;;;7.50;4.07;;;;;;;13.49;100.00;94835.13;5061106;28;20044;-79
2022/05/24 09:47:46;;;;;;;7.22;4.57;;;;;;;13.42;100.00;94834.75;5061857;28;20061;-78
2022/05/24 09:50:18;;;;;;;8.02;3.72;;;;;;;13.37;100.00;94848.88;5069363;28;20510;-78
2022/05/24 09:53:08;;;;;;;6.35;3.47;;;;;;;13.49;100.00;94845.69;5069689;28;20051;-79
2022/05/24 09:55:36;;;;;;;7.85;3.42;;;;;;;13.45;100.00;94839.44;5062646;28;20056;-79
2022/05/24 09:58:27;;;;;;;8.95;3.63;;;;;;;13.41;100.00;94844.56;5072344;28;20115;-78
2022/05/24 10:01:11;;;;;;;8.52;3.92;;;;;;;13.43;100.00;94852.97;5055753;28;20045;-78
2022/05/24 10:03:47;;;;;;;12.45;3.95;;;;;;;13.55;100.00;94859.53;5053208;28;20045;-79
2022/05/24 10:06:28;;;;;;;11.10;3.70;;;;;;;13.57;100.00;94863.44;5058543;28;20097;-78
2022/05/24 10:08:58;;;;;;;8.13;3.45;;;;;;;13.59;100.00;94865.78;5065593;28;20091;-78
2022/05/24 10:11:36;;;;;;;5.70;3.30;;;;;;;13.64;100.00;94863.78;5058754;28;20037;-79
2022/05/24 10:14:17;;;;;;;6.85;3.22;;;;;;;13.71;100.00;94862.59;5066816;28;20116;-78
2022/05/24 10:17:11;;;;;;;7.75;3.00;;;;;;;13.68;100.00;94853.38;5066862;28;20535;-78
2022/05/24 10:19:49;;;;;;;6.15;3.50;;;;;;;13.79;100.00;94869.75;5060832;28;20115;-78
2022/05/24 10:22:54;;;;;;;5.97;3.10;;;;;;;13.68;100.00;94859.44;5053480;28;20052;-78
2022/05/24 10:25:27;;;;;;;5.28;3.17;;;;;;;13.72;100.00;94864.91;5066754;28;20057;-78
2022/05/24 10:27:59;;;;;;;6.18;3.33;;;;;;;13.79;100.00;94880.34;5067733;28;20494;-77
2022/05/24 10:30:49;;;;;;;7.32;3.30;;;;;;;13.69;100.00;94882.16;5067011;28;20561;-78
2022/05/24 10:40:03;;;;;;;7.38;3.70;;;;;;;13.52;100.00;94882.09;5054623;28;20094;-78
2022/05/24 10:42:35;;;;;;;5.60;3.42;;;;;;;13.68;100.00;94885.88;5058147;28;20418;-75
2022/05/24 10:45:08;;;;;;;6.95;3.10;;;;;;;13.67;100.00;94879.03;5063103;28;20049;-75
2022/05/24 10:47:39;;;;;;;11.48;4.18;;;;;;;13.86;100.00;94878.03;5069072;28;20124;-75
2022/05/24 10:50:14;;;;;;;8.75;3.55;;;;;;;13.84;100.00;94885.50;5063446;28;20047;-76
2022/05/24 10:53:11;;;;;;;5.93;3.80;;;;;;;13.85;100.00;94884.41;5057804;28;20052;-75
2022/05/24 10:55:46;;;;;;;5.85;3.20;;;;;;;13.91;100.00;94882.41;5052003;28;20098;-75
2022/05/24 10:58:17;;;;;;;14.38;4.35;;;;;;;13.86;100.00;94891.25;5051591;28;20053;-75
2022/05/24 11:00:48;;;;;;;7.05;3.67;;;;;;;13.91;100.00;94883.19;5052838;28;20044;-74
2022/05/24 11:03:31;;;;;;;8.38;3.80;;;;;;;13.95;100.00;94884.16;5062876;28;20044;-77
2022/05/24 11:06:15;;;;;;;7.40;3.72;;;;;;;13.89;100.00;94884.56;5068417;28;20048;-77
2022/05/24 11:08:49;;;;;;;8.85;4.00;;;;;;;14.07;100.00;94893.38;5061398;28;20052;-75
2022/05/24 11:11:33;;;;;;;4.80;3.30;;;;;;;14.07;100.00;94890.72;5050304;28;20032;-76
2022/05/24 11:14:17;;;;;;;11.10;3.73;;;;;;;14.11;100.00;94899.63;5051428;28;20032;-76
2022/05/24 11:16:49;;;;;;;6.93;3.40;;;;;;;14.09;100.00;94889.31;5051460;28;20289;-74
2022/05/24 11:19:25;;;;;;;10.50;3.50;;;;;;;14.06;100.00;94905.03;5074252;28;20082;-75
2022/05/24 11:22:24;;;;;;;6.32;3.67;;;;;;;14.00;100.00;94902.50;5052125;28;20130;-76
2022/05/24 11:25:11;;;;;;;6.15;3.10;;;;;;;14.02;100.00;94904.84;5067620;28;20061;-75
2022/05/24 11:27:50;;;;;;;7.10;3.42;;;;;;;14.01;100.00;94898.03;5068407;28;20044;-75
2022/05/24 11:30:24;;;;;;;10.18;3.40;;;;;;;13.82;100.00;94896.38;5068398;28;20124;-75
2022/05/24 11:33:02;;;;;;;6.97;3.78;;;;;;;13.87;100.00;94903.41;5050304;28;20257;-76
2022/05/24 11:35:33;;;;;;;14.02;4.15;;;;;;;13.95;100.00;94910.59;5062975;28;20039;-75
2022/05/24 11:38:10;;;;;;;8.70;4.03;;;;;;;13.95;100.00;94900.03;5051291;28;20128;-76
2022/05/24 11:41:01;;;;;;;9.15;3.97;;;;;;;13.95;100.00;94909.81;5063763;28;20416;-78
2022/05/24 11:43:36;;;;;;;6.25;3.60;;;;;;;14.07;100.00;94917.19;5065361;28;20047;-78
2022/05/24 11:46:10;;;;;;;8.38;3.83;;;;;;;14.01;100.00;94914.66;5066719;28;20735;-78
2022/05/24 11:48:51;;;;;;;14.88;7.30;;;;;;;14.05;100.00;94912.19;5064580;28;20033;-77
2022/05/24 11:51:37;;;;;;;13.07;4.97;;;;;;;13.95;100.00;94915.88;5055346;28;20041;-78
2022/05/24 11:54:21;;;;;;;9.02;4.35;;;;;;;13.96;100.00;94912.13;5067638;28;20048;-76
2022/05/24 11:57:01;;;;;;;8.25;5.00;;;;;;;14.03;100.00;94912.47;5050523;28;20049;-76
2022/05/24 11:59:48;;;;;;;11.40;5.00;;;;;;;14.04;100.00;94908.75;5052686;28;20119;-77
2022/05/24 12:02:25;;;;;;;8.07;4.35;;;;;;;14.08;100.00;94913.44;5069898;28;20478;-76
2022/05/24 12:07:56;;;;;;;10.75;5.10;;;;;;;14.20;100.00;94905.69;5077191;28;20047;-85
2022/05/24 12:10:22;;;;;;;11.63;5.18;;;;;;;14.23;100.00;94910.38;5063198;28;20045;-82
2022/05/24 12:13:03;;;;;;;12.98;6.20;;;;;;;14.27;100.00;94921.91;5072301;28;20116;-82
2022/05/24 12:15:34;;;;;;;13.00;5.50;;;;;;;14.16;100.00;94925.91;5053912;28;20078;-82
2022/05/24 12:17:59;;;;;;;10.63;5.40;;;;;;;14.16;100.00;94925.91;5058017;28;20045;-82